sensor_id;sensor_type;location;lat;lon;timestamp;pressure;altitude;pressure_sealevel;temperature;humidity
21826;BME280;11075;47.944;11.776;2023-07-28T00:02:01;94289.13;;;2.79;100.00
21826;BME280;11075;47.944;11.776;2023-07-28T00:04:28;94292.94;;;3.00;97.17
21826;BME280;11075;47.944;11.776;2023-07-28T00:06:55;94289.97;;;2.61;100.00
21826;BME280;11075;47.944;11.776;2023-07-28T00:09:21;94295.88;;;2.30;100.00
21826;BME280;11075;47.944;11.776;2023-07-28T00:11:49;94288.81;;;2.81;98.44
21826;BME280;11075;47.944;11.776;2023-07-28T00:14:16;94286.53;;;2.88;97.95
21826;BME280;11075;47.944;11.776;2023-07-28T00:16:43;94290.72;;;3.16;91.57
21826;BME280;11075;47.944;11.776;2023-07-28T00:19:10;94282.97;;;3.06;93.01
21826;BME280;11075;47.944;11.776;2023-07-28T00:21:37;94281.06;;;3.20;92.24
21826;BME280;11075;47.944;11.776;2023-07-28T00:24:04;94288.59;;;2.91;96.30
21826;BME280;11075;47.944;11.776;2023-07-28T00:26:31;94282.81;;;2.75;98.35
21826;BME280;11075;47.944;11.776;2023-07-28T00:28:59;94278.66;;;2.55;100.00
21826;BME280;11075;47.944;11.776;2023-07-28T00:31:25;94270.19;;;2.81;96.33
21826;BME280;11075;47.944;11.776;2023-07-28T00:33:52;94284.66;;;2.88;95.82
21826;BME280;11075;47.944;11.776;2023-07-28T00:36:19;94282.06;;;3.10;92.86
21826;BME280;11075;47.944;11.776;2023-07-28T00:38:46;94286.63;;;2.96;94.38
21826;BME280;11075;47.944;11.776;2023-07-28T00:41:13;94286.56;;;2.74;97.54
21826;BME280;11075;47.944;11.776;2023-07-28T00:43:40;94283.69;;;2.57;98.91
21826;BME280;11075;47.944;11.776;2023-07-28T00:46:08;94287.34;;;2.74;97.31
21826;BME280;11075;47.944;11.776;2023-07-28T00:48:36;94281.53;;;2.72;96.65
21826;BME280;11075;47.944;11.776;2023-07-28T00:51:03;94285.13;;;3.04;94.00
21826;BME280;11075;47.944;11.776;2023-07-28T00:53:30;94282.97;;;3.06;92.03
21826;BME280;11075;47.944;11.776;2023-07-28T00:55:57;94284.03;;;3.05;94.19
21826;BME280;11075;47.944;11.776;2023-07-28T00:58:24;94289.91;;;2.79;96.41
21826;BME280;11075;47.944;11.776;2023-07-28T01:00:51;94287.81;;;2.63;97.44
21826;BME280;11075;47.944;11.776;2023-07-28T01:03:18;94278.16;;;2.81;94.97
21826;BME280;11075;47.944;11.776;2023-07-28T01:11:19;94277.28;;;2.85;96.62
21826;BME280;11075;47.944;11.776;2023-07-28T01:13:46;94282.41;;;2.82;95.52
21826;BME280;11075;47.944;11.776;2023-07-28T01:16:13;94275.91;;;2.46;99.30
21826;BME280;11075;47.944;11.776;2023-07-28T01:18:41;94275.41;;;2.72;98.54
21826;BME280;11075;47.944;11.776;2023-07-28T01:21:11;94280.75;;;2.72;97.14
21826;BME280;11075;47.944;11.776;2023-07-28T01:26:35;94282.09;;;2.83;97.06
21826;BME280;11075;47.944;11.776;2023-07-28T01:29:04;94277.69;;;2.65;100.00
21826;BME280;11075;47.944;11.776;2023-07-28T01:31:31;94278.75;;;2.50;100.00
21826;BME280;11075;47.944;11.776;2023-07-28T01:33:58;94278.66;;;2.55;97.98
21826;BME280;11075;47.944;11.776;2023-07-28T01:36:25;94277.56;;;2.29;100.00
21826;BME280;11075;47.944;11.776;2023-07-28T01:38:52;94279.81;;;2.35;99.60
21826;BME280;11075;47.944;11.776;2023-07-28T01:41:20;94283.16;;;2.13;100.00
21826;BME280;11075;47.944;11.776;2023-07-28T01:43:47;94285.72;;;2.19;99.75
21826;BME280;11075;47.944;11.776;2023-07-28T01:46:14;94288.06;;;2.06;100.00
21826;BME280;11075;47.944;11.776;2023-07-28T01:48:41;94287.09;;;2.30;98.05
21826;BME280;11075;47.944;11.776;2023-07-28T01:51:08;94286.50;;;2.19;98.13
21826;BME280;11075;47.944;11.776;2023-07-28T01:53:34;94298.31;;;2.27;98.36
21826;BME280;11075;47.944;11.776;2023-07-28T01:56:01;94291.16;;;2.41;96.23
21826;BME280;11075;47.944;11.776;2023-07-28T01:58:28;94287.31;;;2.33;97.04
21826;BME280;11075;47.944;11.776;2023-07-28T02:00:55;94292.53;;;2.25;97.79
21826;BME280;11075;47.944;11.776;2023-07-28T02:03:22;94294.41;;;2.38;95.55
21826;BME280;11075;47.944;11.776;2023-07-28T02:05:49;94289.16;;;2.19;96.77
21826;BME280;11075;47.944;11.776;2023-07-28T02:08:16;94290.16;;;2.23;96.94
21826;BME280;11075;47.944;11.776;2023-07-28T02:10:44;94281.78;;;1.32;100.00
21826;BME280;11075;47.944;11.776;2023-07-28T02:13:11;94287.13;;;1.83;100.00
21826;BME280;11075;47.944;11.776;2023-07-28T02:15:38;94279.72;;;1.80;100.00
21826;BME280;11075;47.944;11.776;2023-07-28T02:18:07;94280.97;;;1.69;100.00
21826;BME280;11075;47.944;11.776;2023-07-28T02:20:34;94285.59;;;1.96;99.16
21826;BME280;11075;47.944;11.776;2023-07-28T02:23:02;94285.78;;;2.00;97.92
21826;BME280;11075;47.944;11.776;2023-07-28T02:25:29;94288.25;;;1.64;100.00
21826;BME280;11075;47.944;11.776;2023-07-28T02:27:57;94285.75;;;1.86;99.08
21826;BME280;11075;47.944;11.776;2023-07-28T02:30:24;94286.28;;;1.50;100.00
21826;BME280;11075;47.944;11.776;2023-07-28T02:32:51;94279.13;;;1.70;99.64
21826;BME280;11075;47.944;11.776;2023-07-28T02:35:18;94275.63;;;1.88;98.41
21826;BME280;11075;47.944;11.776;2023-07-28T02:37:47;94284.28;;;1.94;99.14
21826;BME280;11075;47.944;11.776;2023-07-28T02:40:14;94284.50;;;1.65;99.57
21826;BME280;11075;47.944;11.776;2023-07-28T02:42:41;94279.56;;;1.58;98.35
21826;BME280;11075;47.944;11.776;2023-07-28T02:45:08;94284.38;;;1.89;95.79
21826;BME280;11075;47.944;11.776;2023-07-28T02:47:37;94281.84;;;1.97;94.64
21826;BME280;11075;47.944;11.776;2023-07-28T02:50:04;94283.06;;;1.72;96.53
21826;BME280;11075;47.944;11.776;2023-07-28T02:52:31;94283.84;;;1.54;97.88
21826;BME280;11075;47.944;11.776;2023-07-28T02:54:59;94288.19;;;1.31;100.00
21826;BME280;11075;47.944;11.776;2023-07-28T02:57:27;94284.50;;;1.46;100.00
21826;BME280;11075;47.944;11.776;2023-07-28T02:59:54;94289.09;;;1.40;99.75
21826;BME280;11075;47.944;11.776;2023-07-28T03:02:21;94294.69;;;1.76;96.36
21826;BME280;11075;47.944;11.776;2023-07-28T03:04:50;94292.47;;;1.46;100.00
21826;BME280;11075;47.944;11.776;2023-07-28T03:07:17;94294.50;;;1.16;100.00
21826;BME280;11075;47.944;11.776;2023-07-28T03:09:48;94285.03;;;1.29;100.00
21826;BME280;11075;47.944;11.776;2023-07-28T03:12:15;94292.34;;;1.18;100.00
21826;BME280;11075;47.944;11.776;2023-07-28T03:14:42;94289.81;;;1.08;100.00
21826;BME280;11075;47.944;11.776;2023-07-28T03:17:09;94292.47;;;1.27;100.00
21826;BME280;11075;47.944;11.776;2023-07-28T03:19:36;94299.72;;;1.40;100.00
21826;BME280;11075;47.944;11.776;2023-07-28T03:22:03;94292.34;;;1.37;100.00
21826;BME280;11075;47.944;11.776;2023-07-28T03:24:29;94300.38;;;1.32;100.00
21826;BME280;11075;47.944;11.776;2023-07-28T03:26:57;94291.53;;;1.56;100.00
21826;BME280;11075;47.944;11.776;2023-07-28T03:29:23;94294.25;;;1.50;100.00
21826;BME280;11075;47.944;11.776;2023-07-28T03:31:50;94300.66;;;1.49;100.00
21826;BME280;11075;47.944;11.776;2023-07-28T03:34:18;94298.88;;;1.64;99.80
21826;BME280;11075;47.944;11.776;2023-07-28T03:36:45;94296.63;;;1.71;100.00
21826;BME280;11075;47.944;11.776;2023-07-28T03:39:13;94294.03;;;1.47;100.00
21826;BME280;11075;47.944;11.776;2023-07-28T03:41:44;94296.22;;;1.64;100.00
21826;BME280;11075;47.944;11.776;2023-07-28T03:44:10;94300.16;;;1.47;100.00
21826;BME280;11075;47.944;11.776;2023-07-28T03:46:37;94283.59;;;1.88;96.68
21826;BME280;11075;47.944;11.776;2023-07-28T03:49:04;94289.63;;;2.07;95.00
21826;BME280;11075;47.944;11.776;2023-07-28T03:51:31;94301.81;;;1.95;96.45
21826;BME280;11075;47.944;11.776;2023-07-28T03:53:58;94306.53;;;1.98;97.40
21826;BME280;11075;47.944;11.776;2023-07-28T03:56:25;94305.44;;;2.31;93.35
21826;BME280;11075;47.944;11.776;2023-07-28T03:58:52;94310.81;;;1.80;100.00
21826;BME280;11075;47.944;11.776;2023-07-28T04:01:20;94305.34;;;1.90;100.00
21826;BME280;11075;47.944;11.776;2023-07-28T04:03:48;94302.44;;;1.73;100.00
21826;BME280;11075;47.944;11.776;2023-07-28T04:06:15;94296.38;;;1.86;99.22
21826;BME280;11075;47.944;11.776;2023-07-28T04:08:42;94299.84;;;2.00;100.00
21826;BME280;11075;47.944;11.776;2023-07-28T04:11:09;94292.00;;;2.09;99.51
21826;BME280;11075;47.944;11.776;2023-07-28T04:13:36;94302.06;;;2.12;99.78
21826;BME280;11075;47.944;11.776;2023-07-28T04:16:03;94302.31;;;1.97;99.57
21826;BME280;11075;47.944;11.776;2023-07-28T04:18:30;94300.03;;;1.90;100.00
21826;BME280;11075;47.944;11.776;2023-07-28T04:20:58;94300.34;;;2.02;100.00
21826;BME280;11075;47.944;11.776;2023-07-28T04:23:25;94287.16;;;1.97;100.00
21826;BME280;11075;47.944;11.776;2023-07-28T04:25:52;94300.56;;;2.06;99.30
21826;BME280;11075;47.944;11.776;2023-07-28T04:28:19;94296.75;;;2.26;97.52
21826;BME280;11075;47.944;11.776;2023-07-28T04:30:46;94302.19;;;2.48;96.17
21826;BME280;11075;47.944;11.776;2023-07-28T04:33:33;94294.84;;;2.72;95.17
21826;BME280;11075;47.944;11.776;2023-07-28T04:36:04;94298.63;;;3.07;94.16
21826;BME280;11075;47.944;11.776;2023-07-28T04:38:33;94298.28;;;2.87;95.31
21826;BME280;11075;47.944;11.776;2023-07-28T04:41:00;94288.69;;;2.99;96.00
21826;BME280;11075;47.944;11.776;2023-07-28T04:43:45;94289.19;;;2.46;99.52
21826;BME280;11075;47.944;11.776;2023-07-28T04:46:12;94290.75;;;2.47;100.00
21826;BME280;11075;47.944;11.776;2023-07-28T04:48:40;94283.44;;;3.08;96.25
21826;BME280;11075;47.944;11.776;2023-07-28T04:51:27;94268.84;;;3.19;92.40
21826;BME280;11075;47.944;11.776;2023-07-28T04:54:14;94270.56;;;2.88;97.31
21826;BME280;11075;47.944;11.776;2023-07-28T04:56:40;94279.91;;;2.99;97.44
21826;BME280;11075;47.944;11.776;2023-07-28T04:59:07;94290.66;;;2.39;100.00
21826;BME280;11075;47.944;11.776;2023-07-28T05:01:34;94289.00;;;2.98;97.20
21826;BME280;11075;47.944;11.776;2023-07-28T05:04:01;94293.19;;;3.49;94.23
21826;BME280;11075;47.944;11.776;2023-07-28T05:06:29;94306.94;;;3.42;96.44
21826;BME280;11075;47.944;11.776;2023-07-28T05:08:56;94323.44;;;3.30;95.87
21826;BME280;11075;47.944;11.776;2023-07-28T05:11:31;94315.72;;;3.42;96.97
21826;BME280;11075;47.944;11.776;2023-07-28T05:13:59;94306.63;;;3.43;95.20
21826;BME280;11075;47.944;11.776;2023-07-28T05:16:26;94310.16;;;3.53;96.33
21826;BME280;11075;47.944;11.776;2023-07-28T05:19:05;94329.72;;;2.71;100.00
21826;BME280;11075;47.944;11.776;2023-07-28T05:21:50;94317.09;;;3.76;94.92
21826;BME280;11075;47.944;11.776;2023-07-28T05:24:21;94329.81;;;3.79;96.70
21826;BME280;11075;47.944;11.776;2023-07-28T05:26:48;94327.13;;;3.07;100.00
21826;BME280;11075;47.944;11.776;2023-07-28T05:29:14;94334.16;;;3.39;100.00
21826;BME280;11075;47.944;11.776;2023-07-28T05:31:43;94343.91;;;3.43;100.00
21826;BME280;11075;47.944;11.776;2023-07-28T05:34:19;94332.50;;;3.65;100.00
21826;BME280;11075;47.944;11.776;2023-07-28T05:36:46;94333.41;;;3.61;100.00
21826;BME280;11075;47.944;11.776;2023-07-28T05:39:13;94359.28;;;2.97;100.00
21826;BME280;11075;47.944;11.776;2023-07-28T05:41:43;94347.63;;;4.15;98.91
21826;BME280;11075;47.944;11.776;2023-07-28T05:44:11;94340.72;;;4.14;99.32
21826;BME280;11075;47.944;11.776;2023-07-28T05:46:38;94340.59;;;3.96;100.00
21826;BME280;11075;47.944;11.776;2023-07-28T05:49:05;94344.47;;;3.54;100.00
21826;BME280;11075;47.944;11.776;2023-07-28T05:51:32;94348.22;;;3.53;100.00
21826;BME280;11075;47.944;11.776;2023-07-28T05:53:59;94357.84;;;3.40;100.00
21826;BME280;11075;47.944;11.776;2023-07-28T05:56:26;94352.91;;;3.84;100.00
21826;BME280;11075;47.944;11.776;2023-07-28T05:58:53;94351.66;;;4.34;100.00
21826;BME280;11075;47.944;11.776;2023-07-28T06:01:20;94355.94;;;4.44;99.81
21826;BME280;11075;47.944;11.776;2023-07-28T06:04:16;94361.13;;;4.71;100.00
21826;BME280;11075;47.944;11.776;2023-07-28T06:06:47;94355.53;;;4.82;97.77
21826;BME280;11075;47.944;11.776;2023-07-28T06:09:15;94351.72;;;5.22;97.27
21826;BME280;11075;47.944;11.776;2023-07-28T06:11:43;94370.22;;;5.84;91.88
21826;BME280;11075;47.944;11.776;2023-07-28T06:14:10;94365.47;;;6.16;89.07
21826;BME280;11075;47.944;11.776;2023-07-28T06:16:37;94353.69;;;5.82;92.66
21826;BME280;11075;47.944;11.776;2023-07-28T06:19:04;94358.56;;;6.15;92.44
21826;BME280;11075;47.944;11.776;2023-07-28T06:21:33;94369.53;;;6.30;89.81
21826;BME280;11075;47.944;11.776;2023-07-28T06:24:00;94367.44;;;7.09;86.79
21826;BME280;11075;47.944;11.776;2023-07-28T06:26:27;94367.84;;;7.19;82.92
21826;BME280;11075;47.944;11.776;2023-07-28T06:28:54;94367.31;;;7.64;79.18
21826;BME280;11075;47.944;11.776;2023-07-28T06:31:21;94363.69;;;7.01;77.51
21826;BME280;11075;47.944;11.776;2023-07-28T06:33:48;94367.75;;;7.07;87.13
21826;BME280;11075;47.944;11.776;2023-07-28T06:36:14;94382.13;;;7.03;87.56
21826;BME280;11075;47.944;11.776;2023-07-28T06:38:41;94377.81;;;7.10;78.76
21826;BME280;11075;47.944;11.776;2023-07-28T06:41:10;94377.91;;;7.31;73.93
21826;BME280;11075;47.944;11.776;2023-07-28T06:43:37;94372.09;;;7.29;71.89
21826;BME280;11075;47.944;11.776;2023-07-28T06:46:06;94371.97;;;8.50;68.34
21826;BME280;11075;47.944;11.776;2023-07-28T06:48:33;94376.13;;;9.17;64.47
21826;BME280;11075;47.944;11.776;2023-07-28T06:51:00;94372.41;;;9.10;62.70
21826;BME280;11075;47.944;11.776;2023-07-28T06:53:27;94375.78;;;9.19;61.25
21826;BME280;11075;47.944;11.776;2023-07-28T06:55:54;94376.13;;;9.05;62.08
21826;BME280;11075;47.944;11.776;2023-07-28T06:58:22;94379.25;;;9.44;61.50
21826;BME280;11075;47.944;11.776;2023-07-28T07:00:48;94381.59;;;9.33;58.14
21826;BME280;11075;47.944;11.776;2023-07-28T07:03:16;94384.84;;;9.75;57.51
21826;BME280;11075;47.944;11.776;2023-07-28T07:05:44;94379.25;;;10.08;58.47
21826;BME280;11075;47.944;11.776;2023-07-28T07:08:11;94388.63;;;10.55;55.43
21826;BME280;11075;47.944;11.776;2023-07-28T07:10:38;94383.81;;;10.32;58.00
21826;BME280;11075;47.944;11.776;2023-07-28T07:13:05;94386.81;;;9.91;55.69
21826;BME280;11075;47.944;11.776;2023-07-28T07:15:34;94399.41;;;9.74;54.91
21826;BME280;11075;47.944;11.776;2023-07-28T07:18:02;94383.78;;;11.20;51.22
21826;BME280;11075;47.944;11.776;2023-07-28T07:20:29;94390.13;;;11.11;54.54
21826;BME280;11075;47.944;11.776;2023-07-28T07:22:56;94385.22;;;11.49;50.61
21826;BME280;11075;47.944;11.776;2023-07-28T07:25:23;94397.75;;;10.50;52.10
21826;BME280;11075;47.944;11.776;2023-07-28T07:27:50;94380.81;;;11.40;51.08
21826;BME280;11075;47.944;11.776;2023-07-28T07:30:17;94394.91;;;10.59;52.54
21826;BME280;11075;47.944;11.776;2023-07-28T07:32:44;94382.78;;;11.59;52.77
21826;BME280;11075;47.944;11.776;2023-07-28T07:35:11;94386.38;;;12.18;51.85
21826;BME280;11075;47.944;11.776;2023-07-28T07:37:38;94398.81;;;11.05;50.64
21826;BME280;11075;47.944;11.776;2023-07-28T07:40:06;94394.88;;;11.65;53.26
21826;BME280;11075;47.944;11.776;2023-07-28T07:42:44;94386.88;;;12.62;49.73
21826;BME280;11075;47.944;11.776;2023-07-28T07:45:12;94385.63;;;11.82;51.50
21826;BME280;11075;47.944;11.776;2023-07-28T07:47:40;94380.06;;;12.91;49.32
21826;BME280;11075;47.944;11.776;2023-07-28T07:50:09;94383.16;;;12.70;47.48
21826;BME280;11075;47.944;11.776;2023-07-28T07:52:37;94378.53;;;12.70;47.47
21826;BME280;11075;47.944;11.776;2023-07-28T07:55:09;94382.13;;;12.36;49.60
21826;BME280;11075;47.944;11.776;2023-07-28T07:57:39;94379.03;;;13.45;48.58
21826;BME280;11075;47.944;11.776;2023-07-28T08:00:06;94381.91;;;12.25;47.41
21826;BME280;11075;47.944;11.776;2023-07-28T08:02:38;94362.22;;;13.32;48.26
21826;BME280;11075;47.944;11.776;2023-07-28T08:05:05;94357.84;;;13.24;46.38
21826;BME280;11075;47.944;11.776;2023-07-28T08:07:32;94357.38;;;13.67;47.21
21826;BME280;11075;47.944;11.776;2023-07-28T08:09:59;94362.84;;;13.22;46.82
21826;BME280;11075;47.944;11.776;2023-07-28T08:12:26;94359.00;;;14.02;46.10
21826;BME280;11075;47.944;11.776;2023-07-28T08:14:54;94367.13;;;14.02;44.98
21826;BME280;11075;47.944;11.776;2023-07-28T08:17:22;94364.31;;;14.58;46.99
21826;BME280;11075;47.944;11.776;2023-07-28T08:19:49;94362.94;;;13.29;47.16
21826;BME280;11075;47.944;11.776;2023-07-28T08:22:16;94377.72;;;12.89;49.54
21826;BME280;11075;47.944;11.776;2023-07-28T08:24:43;94373.34;;;14.33;46.37
21826;BME280;11075;47.944;11.776;2023-07-28T08:27:09;94374.16;;;13.05;47.93
21826;BME280;11075;47.944;11.776;2023-07-28T08:29:36;94381.31;;;11.97;49.22
21826;BME280;11075;47.944;11.776;2023-07-28T08:32:03;94365.91;;;14.26;46.80
21826;BME280;11075;47.944;11.776;2023-07-28T08:34:30;94375.97;;;13.46;47.23
21826;BME280;11075;47.944;11.776;2023-07-28T08:36:57;94374.25;;;12.47;50.07
21826;BME280;11075;47.944;11.776;2023-07-28T08:39:24;94371.41;;;11.85;50.96
21826;BME280;11075;47.944;11.776;2023-07-28T08:42:09;94369.34;;;12.75;49.51
21826;BME280;11075;47.944;11.776;2023-07-28T08:44:36;94371.41;;;13.50;49.40
21826;BME280;11075;47.944;11.776;2023-07-28T08:47:04;94375.88;;;13.39;48.06
21826;BME280;11075;47.944;11.776;2023-07-28T08:49:31;94378.41;;;14.38;45.27
21826;BME280;11075;47.944;11.776;2023-07-28T08:52:00;94374.31;;;13.91;44.80
21826;BME280;11075;47.944;11.776;2023-07-28T08:54:28;94383.09;;;14.74;48.16
21826;BME280;11075;47.944;11.776;2023-07-28T08:56:55;94377.78;;;16.46;43.74
21826;BME280;11075;47.944;11.776;2023-07-28T08:59:25;94378.38;;;16.07;43.54
21826;BME280;11075;47.944;11.776;2023-07-28T09:01:54;94375.38;;;16.30;41.51
21826;BME280;11075;47.944;11.776;2023-07-28T09:04:23;94371.84;;;14.72;46.12
21826;BME280;11075;47.944;11.776;2023-07-28T09:06:50;94371.88;;;14.76;44.07
21826;BME280;11075;47.944;11.776;2023-07-28T09:09:20;94377.28;;;13.56;46.65
21826;BME280;11075;47.944;11.776;2023-07-28T09:11:53;94379.50;;;13.24;48.74
21826;BME280;11075;47.944;11.776;2023-07-28T09:14:21;94377.84;;;13.95;49.67
21826;BME280;11075;47.944;11.776;2023-07-28T09:16:52;94388.09;;;14.72;44.61
21826;BME280;11075;47.944;11.776;2023-07-28T09:19:20;94380.16;;;14.53;43.47
21826;BME280;11075;47.944;11.776;2023-07-28T09:21:57;94383.25;;;14.55;42.60
21826;BME280;11075;47.944;11.776;2023-07-28T09:24:33;94385.16;;;13.64;45.17
21826;BME280;11075;47.944;11.776;2023-07-28T09:27:00;94381.72;;;13.67;43.46
21826;BME280;11075;47.944;11.776;2023-07-28T09:29:27;94378.59;;;14.52;44.27
21826;BME280;11075;47.944;11.776;2023-07-28T09:32:05;94380.28;;;13.01;43.89
21826;BME280;11075;47.944;11.776;2023-07-28T09:34:32;94379.00;;;13.18;47.15
21826;BME280;11075;47.944;11.776;2023-07-28T09:37:00;94378.78;;;13.53;46.34
21826;BME280;11075;47.944;11.776;2023-07-28T09:39:28;94384.03;;;13.65;45.88
21826;BME280;11075;47.944;11.776;2023-07-28T09:41:56;94391.78;;;13.67;45.21
21826;BME280;11075;47.944;11.776;2023-07-28T09:44:25;94383.81;;;12.63;46.24
21826;BME280;11075;47.944;11.776;2023-07-28T09:46:56;94388.31;;;13.21;45.58
21826;BME280;11075;47.944;11.776;2023-07-28T09:49:38;94387.41;;;13.36;45.40
21826;BME280;11075;47.944;11.776;2023-07-28T09:52:08;94385.81;;;13.09;48.16
21826;BME280;11075;47.944;11.776;2023-07-28T09:54:40;94390.72;;;12.42;47.92
21826;BME280;11075;47.944;11.776;2023-07-28T09:57:19;94392.94;;;12.55;48.54
21826;BME280;11075;47.944;11.776;2023-07-28T09:59:47;94383.41;;;12.84;46.85
21826;BME280;11075;47.944;11.776;2023-07-28T10:02:15;94390.88;;;12.49;47.70
21826;BME280;11075;47.944;11.776;2023-07-28T10:04:42;94384.13;;;11.85;49.25
21826;BME280;11075;47.944;11.776;2023-07-28T10:07:10;94390.59;;;12.34;48.94
21826;BME280;11075;47.944;11.776;2023-07-28T10:09:37;94389.16;;;13.02;47.35
21826;BME280;11075;47.944;11.776;2023-07-28T10:12:05;94383.47;;;13.07;46.30
21826;BME280;11075;47.944;11.776;2023-07-28T10:14:37;94395.94;;;11.96;47.82
21826;BME280;11075;47.944;11.776;2023-07-28T10:17:05;94391.97;;;11.90;48.82
21826;BME280;11075;47.944;11.776;2023-07-28T10:19:36;94399.81;;;12.53;49.18
21826;BME280;11075;47.944;11.776;2023-07-28T10:22:08;94387.03;;;12.50;48.46
21826;BME280;11075;47.944;11.776;2023-07-28T10:25:00;94396.38;;;12.17;48.18
21826;BME280;11075;47.944;11.776;2023-07-28T10:30:04;94395.00;;;11.88;49.93
21826;BME280;11075;47.944;11.776;2023-07-28T10:32:40;94401.84;;;12.01;47.87
21826;BME280;11075;47.944;11.776;2023-07-28T10:35:07;94393.66;;;11.98;49.34
21826;BME280;11075;47.944;11.776;2023-07-28T10:37:36;94395.56;;;12.52;48.73
21826;BME280;11075;47.944;11.776;2023-07-28T10:40:28;94402.94;;;12.16;47.94
21826;BME280;11075;47.944;11.776;2023-07-28T10:43:01;94399.38;;;12.31;48.93
21826;BME280;11075;47.944;11.776;2023-07-28T10:45:30;94410.03;;;12.24;49.96
21826;BME280;11075;47.944;11.776;2023-07-28T10:47:59;94413.59;;;12.67;48.46
21826;BME280;11075;47.944;11.776;2023-07-28T10:50:28;94413.97;;;12.46;50.51
21826;BME280;11075;47.944;11.776;2023-07-28T10:52:56;94409.25;;;12.04;50.55
21826;BME280;11075;47.944;11.776;2023-07-28T10:55:25;94402.13;;;11.96;49.87
21826;BME280;11075;47.944;11.776;2023-07-28T10:57:53;94416.56;;;11.69;51.42
21826;BME280;11075;47.944;11.776;2023-07-28T11:00:22;94425.16;;;11.74;49.98
21826;BME280;11075;47.944;11.776;2023-07-28T11:02:51;94421.44;;;12.53;48.19
21826;BME280;11075;47.944;11.776;2023-07-28T11:05:30;94419.25;;;11.69;49.03
21826;BME280;11075;47.944;11.776;2023-07-28T11:07:58;94412.56;;;11.98;48.28
21826;BME280;11075;47.944;11.776;2023-07-28T11:10:28;94415.13;;;11.91;50.14
21826;BME280;11075;47.944;11.776;2023-07-28T11:13:02;94424.06;;;11.28;49.79
21826;BME280;11075;47.944;11.776;2023-07-28T11:15:46;94428.13;;;11.54;50.81
21826;BME280;11075;47.944;11.776;2023-07-28T11:18:15;94423.09;;;11.68;50.69
21826;BME280;11075;47.944;11.776;2023-07-28T11:20:42;94420.41;;;12.22;49.65
21826;BME280;11075;47.944;11.776;2023-07-28T11:23:13;94419.53;;;11.99;50.79
21826;BME280;11075;47.944;11.776;2023-07-28T11:25:42;94415.81;;;11.88;50.25
21826;BME280;11075;47.944;11.776;2023-07-28T11:28:09;94417.50;;;11.77;50.46
21826;BME280;11075;47.944;11.776;2023-07-28T11:30:37;94406.44;;;11.82;49.02
21826;BME280;11075;47.944;11.776;2023-07-28T11:33:08;94412.66;;;12.01;49.02
21826;BME280;11075;47.944;11.776;2023-07-28T11:35:37;94417.94;;;11.79;49.41
21826;BME280;11075;47.944;11.776;2023-07-28T11:38:05;94411.31;;;11.60;50.63
21826;BME280;11075;47.944;11.776;2023-07-28T11:40:33;94413.31;;;11.63;49.24
21826;BME280;11075;47.944;11.776;2023-07-28T11:43:00;94404.53;;;12.36;50.59
21826;BME280;11075;47.944;11.776;2023-07-28T11:45:27;94395.91;;;12.50;49.07
21826;BME280;11075;47.944;11.776;2023-07-28T11:48:05;94403.59;;;13.82;45.95
21826;BME280;11075;47.944;11.776;2023-07-28T11:50:40;94393.28;;;14.51;46.17
21826;BME280;11075;47.944;11.776;2023-07-28T11:53:09;94395.25;;;14.87;43.56
21826;BME280;11075;47.944;11.776;2023-07-28T11:55:36;94399.59;;;14.96;44.25
21826;BME280;11075;47.944;11.776;2023-07-28T11:58:04;94401.25;;;13.31;47.03
21826;BME280;11075;47.944;11.776;2023-07-28T12:00:32;94409.94;;;13.66;44.92
21826;BME280;11075;47.944;11.776;2023-07-28T12:03:06;94397.25;;;14.27;44.06
21826;BME280;11075;47.944;11.776;2023-07-28T12:05:41;94392.75;;;14.38;46.34
21826;BME280;11075;47.944;11.776;2023-07-28T12:08:34;94405.38;;;14.90;44.26
21826;BME280;11075;47.944;11.776;2023-07-28T12:11:00;94400.66;;;15.28;43.22
21826;BME280;11075;47.944;11.776;2023-07-28T12:13:30;94405.22;;;15.17;45.38
21826;BME280;11075;47.944;11.776;2023-07-28T12:15:58;94395.56;;;15.19;43.67
21826;BME280;11075;47.944;11.776;2023-07-28T12:18:29;94390.94;;;15.23;42.15
21826;BME280;11075;47.944;11.776;2023-07-28T12:21:00;94401.34;;;15.58;41.23
21826;BME280;11075;47.944;11.776;2023-07-28T12:23:27;94383.56;;;14.46;41.72
21826;BME280;11075;47.944;11.776;2023-07-28T12:25:57;94387.50;;;14.52;42.49
21826;BME280;11075;47.944;11.776;2023-07-28T12:28:25;94386.56;;;14.38;42.33
21826;BME280;11075;47.944;11.776;2023-07-28T12:30:52;94384.81;;;15.81;39.86
21826;BME280;11075;47.944;11.776;2023-07-28T12:33:23;94373.53;;;16.52;41.54
21826;BME280;11075;47.944;11.776;2023-07-28T12:36:05;94378.31;;;16.00;38.46
21826;BME280;11075;47.944;11.776;2023-07-28T12:38:35;94375.28;;;16.09;37.97
21826;BME280;11075;47.944;11.776;2023-07-28T12:41:05;94380.00;;;16.19;38.82
21826;BME280;11075;47.944;11.776;2023-07-28T12:43:35;94380.63;;;16.74;36.07
21826;BME280;11075;47.944;11.776;2023-07-28T12:46:05;94395.44;;;16.95;35.80
21826;BME280;11075;47.944;11.776;2023-07-28T12:48:34;94379.84;;;18.30;35.61
21826;BME280;11075;47.944;11.776;2023-07-28T12:51:13;94405.94;;;17.10;35.05
21826;BME280;11075;47.944;11.776;2023-07-28T12:53:56;94373.16;;;16.57;37.03
21826;BME280;11075;47.944;11.776;2023-07-28T12:56:23;94391.88;;;18.40;35.31
21826;BME280;11075;47.944;11.776;2023-07-28T12:58:54;94392.28;;;16.85;35.18
21826;BME280;11075;47.944;11.776;2023-07-28T13:01:24;94353.31;;;16.46;38.23
21826;BME280;11075;47.944;11.776;2023-07-28T13:03:51;94399.38;;;17.36;34.55
21826;BME280;11075;47.944;11.776;2023-07-28T13:06:19;94392.13;;;16.43;36.06
21826;BME280;11075;47.944;11.776;2023-07-28T13:08:46;94380.38;;;16.17;37.53
21826;BME280;11075;47.944;11.776;2023-07-28T13:11:15;94382.59;;;16.99;35.42
21826;BME280;11075;47.944;11.776;2023-07-28T13:13:43;94387.88;;;16.49;35.30